sensor_id;sensor_type;location;lat;lon;timestamp;pressure;altitude;pressure_sealevel;temperature;humidity
59519;BME280;46994;54.976;73.404;2022-07-23T00:00:52;99131.41;;;20.09;49.21
59519;BME280;46994;54.976;73.404;2022-07-23T00:03:19;99141.31;;;20.40;48.31
59519;BME280;46994;54.976;73.404;2022-07-23T00:05:45;99114.41;;;20.44;47.82
59519;BME280;46994;54.976;73.404;2022-07-23T00:08:12;99142.75;;;20.63;48.22
59519;BME280;46994;54.976;73.404;2022-07-23T00:10:39;99112.25;;;20.56;47.88
59519;BME280;46994;54.976;73.404;2022-07-23T00:13:06;99113.38;;;20.65;47.77
59519;BME280;46994;54.976;73.404;2022-07-23T00:15:32;99123.97;;;20.82;47.49
59519;BME280;46994;54.976;73.404;2022-07-23T00:17:59;99125.34;;;20.89;47.13
59519;BME280;46994;54.976;73.404;2022-07-23T00:20:26;99118.03;;;20.85;47.16
59519;BME280;46994;54.976;73.404;2022-07-23T00:22:54;99119.66;;;20.86;47.20
59519;BME280;46994;54.976;73.404;2022-07-23T00:25:22;99141.44;;;21.01;46.94
59519;BME280;46994;54.976;73.404;2022-07-23T00:27:49;99128.63;;;20.97;46.60
59519;BME280;46994;54.976;73.404;2022-07-23T00:30:16;99084.25;;;20.66;47.11
59519;BME280;46994;54.976;73.404;2022-07-23T00:32:51;99124.25;;;20.90;46.96
59519;BME280;46994;54.976;73.404;2022-07-23T00:35:20;99132.16;;;21.02;46.92
59519;BME280;46994;54.976;73.404;2022-07-23T00:37:47;99129.16;;;20.94;46.31
59519;BME280;46994;54.976;73.404;2022-07-23T00:40:15;99164.06;;;21.07;46.57
59519;BME280;46994;54.976;73.404;2022-07-23T00:42:42;99153.97;;;21.02;45.65
59519;BME280;46994;54.976;73.404;2022-07-23T00:45:09;99156.69;;;21.02;45.30
59519;BME280;46994;54.976;73.404;2022-07-23T00:47:36;99149.59;;;20.91;45.43
59519;BME280;46994;54.976;73.404;2022-07-23T00:50:06;99145.78;;;20.82;46.47
59519;BME280;46994;54.976;73.404;2022-07-23T00:52:35;99145.25;;;20.75;46.83
59519;BME280;46994;54.976;73.404;2022-07-23T00:55:03;99141.66;;;20.64;47.88
59519;BME280;46994;54.976;73.404;2022-07-23T00:57:31;99110.81;;;20.28;48.66
59519;BME280;46994;54.976;73.404;2022-07-23T00:59:57;99112.69;;;20.17;49.02
59519;BME280;46994;54.976;73.404;2022-07-23T01:02:25;99117.88;;;20.34;49.10
59519;BME280;46994;54.976;73.404;2022-07-23T01:04:52;99131.31;;;20.61;48.97
59519;BME280;46994;54.976;73.404;2022-07-23T01:07:19;99103.22;;;20.40;49.35
59519;BME280;46994;54.976;73.404;2022-07-23T01:09:46;99124.50;;;20.48;50.51
59519;BME280;46994;54.976;73.404;2022-07-23T01:12:14;99110.81;;;20.28;52.44
59519;BME280;46994;54.976;73.404;2022-07-23T01:14:41;99103.66;;;20.07;53.05
59519;BME280;46994;54.976;73.404;2022-07-23T01:17:08;99107.47;;;20.11;53.47
59519;BME280;46994;54.976;73.404;2022-07-23T01:19:35;99119.50;;;20.35;51.62
59519;BME280;46994;54.976;73.404;2022-07-23T01:22:03;99105.72;;;20.47;51.55
59519;BME280;46994;54.976;73.404;2022-07-23T01:24:31;99124.25;;;20.70;51.01
59519;BME280;46994;54.976;73.404;2022-07-23T01:27:01;99112.56;;;20.80;51.36
59519;BME280;46994;54.976;73.404;2022-07-23T01:29:28;99107.91;;;20.60;52.02
59519;BME280;46994;54.976;73.404;2022-07-23T01:31:57;99106.81;;;20.61;51.84
59519;BME280;46994;54.976;73.404;2022-07-23T01:34:24;99100.56;;;20.71;52.00
59519;BME280;46994;54.976;73.404;2022-07-23T01:36:51;99118.00;;;20.90;52.63
59519;BME280;46994;54.976;73.404;2022-07-23T01:39:18;99098.66;;;20.81;51.74
59519;BME280;46994;54.976;73.404;2022-07-23T01:41:45;99102.22;;;20.87;51.32
59519;BME280;46994;54.976;73.404;2022-07-23T01:44:14;99119.34;;;21.13;51.71
59519;BME280;46994;54.976;73.404;2022-07-23T01:46:42;99122.91;;;21.18;51.65
59519;BME280;46994;54.976;73.404;2022-07-23T01:49:09;99125.38;;;21.30;51.26
59519;BME280;46994;54.976;73.404;2022-07-23T01:51:55;99133.28;;;21.32;50.96
59519;BME280;46994;54.976;73.404;2022-07-23T01:54:56;99107.13;;;21.15;51.00
59519;BME280;46994;54.976;73.404;2022-07-23T01:57:23;99130.56;;;21.27;50.92
59519;BME280;46994;54.976;73.404;2022-07-23T01:59:50;99109.28;;;21.18;50.70
59519;BME280;46994;54.976;73.404;2022-07-23T02:02:19;99113.13;;;21.28;50.56
59519;BME280;46994;54.976;73.404;2022-07-23T02:04:46;99126.16;;;21.41;50.01
59519;BME280;46994;54.976;73.404;2022-07-23T02:07:17;99121.56;;;21.36;49.59
59519;BME280;46994;54.976;73.404;2022-07-23T02:09:44;99137.34;;;21.24;49.50
59519;BME280;46994;54.976;73.404;2022-07-23T02:12:12;99134.06;;;20.81;51.08
59519;BME280;46994;54.976;73.404;2022-07-23T02:14:39;99116.09;;;20.80;50.80
59519;BME280;46994;54.976;73.404;2022-07-23T02:17:06;99133.25;;;21.01;50.18
59519;BME280;46994;54.976;73.404;2022-07-23T02:19:35;99130.81;;;21.10;49.38
59519;BME280;46994;54.976;73.404;2022-07-23T02:22:02;99148.53;;;21.28;48.68
59519;BME280;46994;54.976;73.404;2022-07-23T02:24:28;99135.44;;;21.25;48.24
59519;BME280;46994;54.976;73.404;2022-07-23T02:26:55;99122.63;;;21.25;48.19
59519;BME280;46994;54.976;73.404;2022-07-23T02:29:22;99120.47;;;21.32;47.77
59519;BME280;46994;54.976;73.404;2022-07-23T02:31:49;99137.09;;;21.46;47.51
59519;BME280;46994;54.976;73.404;2022-07-23T02:34:15;99132.16;;;21.43;47.63
59519;BME280;46994;54.976;73.404;2022-07-23T02:36:42;99126.72;;;21.48;47.37
59519;BME280;46994;54.976;73.404;2022-07-23T02:39:10;99120.69;;;21.51;47.25
59519;BME280;46994;54.976;73.404;2022-07-23T02:41:38;99126.41;;;21.65;47.03
59519;BME280;46994;54.976;73.404;2022-07-23T02:44:05;99115.78;;;21.63;46.89
59519;BME280;46994;54.976;73.404;2022-07-23T02:46:33;99109.78;;;21.61;47.12
59519;BME280;46994;54.976;73.404;2022-07-23T02:49:01;99113.03;;;21.73;46.90
59519;BME280;46994;54.976;73.404;2022-07-23T02:51:30;99129.31;;;21.94;46.50
59519;BME280;46994;54.976;73.404;2022-07-23T02:54:02;99132.81;;;22.15;46.38
59519;BME280;46994;54.976;73.404;2022-07-23T02:56:29;99104.16;;;22.12;46.21
59519;BME280;46994;54.976;73.404;2022-07-23T02:58:57;99130.81;;;22.30;46.01
59519;BME280;46994;54.976;73.404;2022-07-23T03:01:24;99134.34;;;22.36;45.89
59519;BME280;46994;54.976;73.404;2022-07-23T03:03:50;99133.47;;;22.41;46.01
59519;BME280;46994;54.976;73.404;2022-07-23T03:06:17;99101.59;;;22.31;45.62
59519;BME280;46994;54.976;73.404;2022-07-23T03:08:44;99104.91;;;22.28;45.82
59519;BME280;46994;54.976;73.404;2022-07-23T03:11:11;99129.09;;;22.45;45.68
59519;BME280;46994;54.976;73.404;2022-07-23T03:13:39;99133.22;;;22.42;45.65
59519;BME280;46994;54.976;73.404;2022-07-23T03:16:06;99116.09;;;22.21;46.09
59519;BME280;46994;54.976;73.404;2022-07-23T03:18:36;99116.09;;;22.26;46.04
59519;BME280;46994;54.976;73.404;2022-07-23T03:21:04;99111.69;;;22.36;45.97
59519;BME280;46994;54.976;73.404;2022-07-23T03:23:30;99134.47;;;22.60;45.33
59519;BME280;46994;54.976;73.404;2022-07-23T03:25:57;99127.19;;;22.45;45.93
59519;BME280;46994;54.976;73.404;2022-07-23T03:28:24;99117.16;;;22.36;45.93
59519;BME280;46994;54.976;73.404;2022-07-23T03:30:51;99136.72;;;22.53;45.80
59519;BME280;46994;54.976;73.404;2022-07-23T03:33:20;99119.22;;;22.54;45.49
59519;BME280;46994;54.976;73.404;2022-07-23T03:35:47;99130.59;;;22.66;45.64
59519;BME280;46994;54.976;73.404;2022-07-23T03:38:22;99131.44;;;22.12;47.17
59519;BME280;46994;54.976;73.404;2022-07-23T03:40:50;99116.25;;;21.81;47.92
59519;BME280;46994;54.976;73.404;2022-07-23T03:43:17;99104.56;;;21.75;47.78
59519;BME280;46994;54.976;73.404;2022-07-23T03:45:44;99120.00;;;22.05;47.22
59519;BME280;46994;54.976;73.404;2022-07-23T03:48:11;99114.47;;;22.20;46.59
59519;BME280;46994;54.976;73.404;2022-07-23T03:50:38;99139.97;;;22.55;46.39
59519;BME280;46994;54.976;73.404;2022-07-23T03:53:05;99132.59;;;22.50;46.12
59519;BME280;46994;54.976;73.404;2022-07-23T03:55:33;99120.63;;;22.46;46.56
59519;BME280;46994;54.976;73.404;2022-07-23T03:58:00;99122.50;;;22.51;46.49
59519;BME280;46994;54.976;73.404;2022-07-23T04:00:28;99105.66;;;22.39;46.57
59519;BME280;46994;54.976;73.404;2022-07-23T04:02:54;99104.00;;;22.43;46.65
59519;BME280;46994;54.976;73.404;2022-07-23T04:05:22;99129.88;;;22.50;46.42
59519;BME280;46994;54.976;73.404;2022-07-23T04:07:52;99110.53;;;22.42;46.81
59519;BME280;46994;54.976;73.404;2022-07-23T04:10:20;99132.34;;;22.52;46.61
59519;BME280;46994;54.976;73.404;2022-07-23T04:12:47;99124.63;;;22.59;46.03
59519;BME280;46994;54.976;73.404;2022-07-23T04:15:14;99111.25;;;22.63;46.88
59519;BME280;46994;54.976;73.404;2022-07-23T04:17:41;99110.97;;;22.64;46.12
59519;BME280;46994;54.976;73.404;2022-07-23T04:20:08;99115.75;;;22.43;46.59
59519;BME280;46994;54.976;73.404;2022-07-23T04:22:43;99112.97;;;22.48;46.83
59519;BME280;46994;54.976;73.404;2022-07-23T04:25:09;99121.34;;;22.62;47.07
59519;BME280;46994;54.976;73.404;2022-07-23T04:27:36;99106.75;;;22.43;47.14
59519;BME280;46994;54.976;73.404;2022-07-23T04:30:04;99118.69;;;22.52;47.38
59519;BME280;46994;54.976;73.404;2022-07-23T04:32:31;99119.91;;;22.70;47.20
59519;BME280;46994;54.976;73.404;2022-07-23T04:34:58;99116.59;;;22.78;46.45
59519;BME280;46994;54.976;73.404;2022-07-23T04:37:25;99094.16;;;22.81;45.97
59519;BME280;46994;54.976;73.404;2022-07-23T04:39:51;99086.81;;;22.81;46.35
59519;BME280;46994;54.976;73.404;2022-07-23T04:42:18;99110.69;;;23.00;46.18
59519;BME280;46994;54.976;73.404;2022-07-23T04:44:45;99103.16;;;22.86;46.81
59519;BME280;46994;54.976;73.404;2022-07-23T04:47:13;99094.34;;;22.55;47.41
59519;BME280;46994;54.976;73.404;2022-07-23T04:49:43;99104.97;;;22.62;47.60
59519;BME280;46994;54.976;73.404;2022-07-23T04:52:09;99105.66;;;22.78;46.72
59519;BME280;46994;54.976;73.404;2022-07-23T04:54:37;99094.13;;;22.91;46.36
59519;BME280;46994;54.976;73.404;2022-07-23T04:57:04;99082.13;;;22.87;46.66
59519;BME280;46994;54.976;73.404;2022-07-23T04:59:31;99082.03;;;22.97;46.52
59519;BME280;46994;54.976;73.404;2022-07-23T05:02:07;99065.66;;;22.97;46.53
59519;BME280;46994;54.976;73.404;2022-07-23T05:04:34;99099.06;;;23.18;45.97
59519;BME280;46994;54.976;73.404;2022-07-23T05:07:01;99094.19;;;23.15;46.65
59519;BME280;46994;54.976;73.404;2022-07-23T05:09:29;99100.22;;;23.12;46.54
59519;BME280;46994;54.976;73.404;2022-07-23T05:11:56;99081.63;;;23.14;46.56
59519;BME280;46994;54.976;73.404;2022-07-23T05:14:23;99070.09;;;23.17;47.37
59519;BME280;46994;54.976;73.404;2022-07-23T05:16:51;99089.66;;;23.29;46.67
59519;BME280;46994;54.976;73.404;2022-07-23T05:19:22;99088.13;;;23.18;46.92
59519;BME280;46994;54.976;73.404;2022-07-23T05:21:49;99072.91;;;23.12;46.60
59519;BME280;46994;54.976;73.404;2022-07-23T05:24:16;99087.63;;;23.16;46.79
59519;BME280;46994;54.976;73.404;2022-07-23T05:26:43;99063.09;;;23.06;47.01
59519;BME280;46994;54.976;73.404;2022-07-23T05:29:11;99077.19;;;23.18;46.74
59519;BME280;46994;54.976;73.404;2022-07-23T05:31:38;99074.03;;;23.06;47.17
59519;BME280;46994;54.976;73.404;2022-07-23T05:34:05;99075.03;;;22.86;47.17
59519;BME280;46994;54.976;73.404;2022-07-23T05:36:33;99105.72;;;23.07;47.69
59519;BME280;46994;54.976;73.404;2022-07-23T05:39:02;99072.59;;;23.13;46.99
59519;BME280;46994;54.976;73.404;2022-07-23T05:41:31;99086.38;;;23.32;47.16
59519;BME280;46994;54.976;73.404;2022-07-23T05:43:59;99092.94;;;23.31;47.35
59519;BME280;46994;54.976;73.404;2022-07-23T05:46:26;99064.00;;;23.01;47.21
59519;BME280;46994;54.976;73.404;2022-07-23T05:49:00;99080.00;;;23.13;47.25
59519;BME280;46994;54.976;73.404;2022-07-23T05:52:06;99068.75;;;22.80;47.61
59519;BME280;46994;54.976;73.404;2022-07-23T05:55:00;99071.19;;;22.87;48.36
59519;BME280;46994;54.976;73.404;2022-07-23T05:57:26;99066.84;;;23.15;46.80
59519;BME280;46994;54.976;73.404;2022-07-23T05:59:53;99079.78;;;23.33;47.60
59519;BME280;46994;54.976;73.404;2022-07-23T06:02:20;99068.41;;;23.50;47.30
59519;BME280;46994;54.976;73.404;2022-07-23T06:04:47;99067.00;;;23.53;47.55
59519;BME280;46994;54.976;73.404;2022-07-23T06:07:28;99052.22;;;23.54;46.05
59519;BME280;46994;54.976;73.404;2022-07-23T06:09:55;99077.28;;;23.66;46.33
59519;BME280;46994;54.976;73.404;2022-07-23T06:12:22;99075.59;;;23.70;46.02
59519;BME280;46994;54.976;73.404;2022-07-23T06:14:51;99079.13;;;23.94;46.30
59519;BME280;46994;54.976;73.404;2022-07-23T06:17:41;99056.63;;;23.97;45.76
59519;BME280;46994;54.976;73.404;2022-07-23T06:20:09;99046.28;;;23.94;45.12
59519;BME280;46994;54.976;73.404;2022-07-23T06:22:38;99071.84;;;23.85;45.77
59519;BME280;46994;54.976;73.404;2022-07-23T06:25:06;99063.91;;;23.64;47.13
59519;BME280;46994;54.976;73.404;2022-07-23T06:27:33;99068.56;;;23.64;46.38
59519;BME280;46994;54.976;73.404;2022-07-23T06:30:00;99067.63;;;23.73;45.69
59519;BME280;46994;54.976;73.404;2022-07-23T06:32:26;99048.06;;;23.61;46.39
59519;BME280;46994;54.976;73.404;2022-07-23T06:34:53;99065.09;;;23.53;46.19
59519;BME280;46994;54.976;73.404;2022-07-23T06:37:21;99058.97;;;23.37;46.66
59519;BME280;46994;54.976;73.404;2022-07-23T06:39:48;99049.09;;;23.41;47.82
59519;BME280;46994;54.976;73.404;2022-07-23T06:42:14;99037.69;;;23.34;47.46
59519;BME280;46994;54.976;73.404;2022-07-23T06:44:45;99033.66;;;23.27;47.85
59519;BME280;46994;54.976;73.404;2022-07-23T06:47:15;99023.44;;;23.08;48.07
59519;BME280;46994;54.976;73.404;2022-07-23T06:49:42;99021.56;;;23.33;47.73
59519;BME280;46994;54.976;73.404;2022-07-23T06:52:09;99031.88;;;23.41;47.36
59519;BME280;46994;54.976;73.404;2022-07-23T06:54:36;99018.00;;;23.56;46.69
59519;BME280;46994;54.976;73.404;2022-07-23T06:57:02;99021.56;;;23.81;45.78
59519;BME280;46994;54.976;73.404;2022-07-23T06:59:31;99032.41;;;24.10;45.65
59519;BME280;46994;54.976;73.404;2022-07-23T07:01:59;99034.38;;;24.23;44.24
59519;BME280;46994;54.976;73.404;2022-07-23T07:04:25;99016.84;;;24.24;44.58
59519;BME280;46994;54.976;73.404;2022-07-23T07:06:52;99009.53;;;24.19;44.57
59519;BME280;46994;54.976;73.404;2022-07-23T07:09:19;99025.56;;;24.26;43.65
59519;BME280;46994;54.976;73.404;2022-07-23T07:11:45;99001.22;;;24.24;44.09
59519;BME280;46994;54.976;73.404;2022-07-23T07:14:12;99002.97;;;24.39;43.35
59519;BME280;46994;54.976;73.404;2022-07-23T07:16:39;99015.72;;;24.63;41.47
59519;BME280;46994;54.976;73.404;2022-07-23T07:19:05;99019.94;;;24.55;41.26
59519;BME280;46994;54.976;73.404;2022-07-23T07:21:32;98997.50;;;24.39;41.99
59519;BME280;46994;54.976;73.404;2022-07-23T07:23:59;99003.91;;;24.48;41.26
59519;BME280;46994;54.976;73.404;2022-07-23T07:26:26;98997.41;;;24.44;39.05
59519;BME280;46994;54.976;73.404;2022-07-23T07:28:53;98994.81;;;24.34;39.84
59519;BME280;46994;54.976;73.404;2022-07-23T07:31:20;98984.28;;;24.03;37.95
59519;BME280;46994;54.976;73.404;2022-07-23T07:33:47;98989.56;;;24.00;38.22
59519;BME280;46994;54.976;73.404;2022-07-23T07:36:14;98984.75;;;24.11;40.24
59519;BME280;46994;54.976;73.404;2022-07-23T07:38:41;98989.03;;;24.36;41.00
59519;BME280;46994;54.976;73.404;2022-07-23T07:41:07;98969.19;;;24.44;40.72
59519;BME280;46994;54.976;73.404;2022-07-23T07:43:36;98970.66;;;24.55;40.87
59519;BME280;46994;54.976;73.404;2022-07-23T07:46:03;98966.41;;;24.63;40.06
59519;BME280;46994;54.976;73.404;2022-07-23T07:48:30;98991.53;;;24.83;39.21
59519;BME280;46994;54.976;73.404;2022-07-23T07:50:57;98969.16;;;24.76;39.94
59519;BME280;46994;54.976;73.404;2022-07-23T07:53:24;98971.84;;;24.95;39.94
59519;BME280;46994;54.976;73.404;2022-07-23T07:55:51;98964.28;;;25.06;39.52
59519;BME280;46994;54.976;73.404;2022-07-23T07:58:17;98972.50;;;25.06;40.16
59519;BME280;46994;54.976;73.404;2022-07-23T08:00:44;98962.75;;;25.13;40.13
59519;BME280;46994;54.976;73.404;2022-07-23T08:03:11;98944.06;;;25.02;40.20
59519;BME280;46994;54.976;73.404;2022-07-23T08:05:38;98959.38;;;24.89;40.80
59519;BME280;46994;54.976;73.404;2022-07-23T08:08:04;98949.84;;;24.54;40.95
59519;BME280;46994;54.976;73.404;2022-07-23T08:10:31;98937.53;;;24.19;42.08
59519;BME280;46994;54.976;73.404;2022-07-23T08:12:58;98946.59;;;24.00;42.92
59519;BME280;46994;54.976;73.404;2022-07-23T08:15:29;98948.09;;;23.69;43.05
59519;BME280;46994;54.976;73.404;2022-07-23T08:17:56;98959.72;;;23.61;43.21
59519;BME280;46994;54.976;73.404;2022-07-23T08:20:23;98962.28;;;23.52;44.18
59519;BME280;46994;54.976;73.404;2022-07-23T08:22:56;98959.59;;;23.71;43.63
59519;BME280;46994;54.976;73.404;2022-07-23T08:25:27;98966.91;;;23.75;44.10
59519;BME280;46994;54.976;73.404;2022-07-23T08:27:54;98941.47;;;23.75;43.94
59519;BME280;46994;54.976;73.404;2022-07-23T08:30:22;98947.22;;;24.11;43.07
59519;BME280;46994;54.976;73.404;2022-07-23T08:32:59;98945.34;;;24.44;42.39
59519;BME280;46994;54.976;73.404;2022-07-23T08:35:40;98931.28;;;24.65;42.80
59519;BME280;46994;54.976;73.404;2022-07-23T08:38:09;98935.22;;;24.91;42.15
59519;BME280;46994;54.976;73.404;2022-07-23T08:40:38;98942.16;;;25.02;42.63
59519;BME280;46994;54.976;73.404;2022-07-23T08:43:07;98949.97;;;25.23;42.59
59519;BME280;46994;54.976;73.404;2022-07-23T08:45:40;98949.97;;;25.50;41.94
59519;BME280;46994;54.976;73.404;2022-07-23T08:48:21;98927.81;;;25.33;41.91
59519;BME280;46994;54.976;73.404;2022-07-23T08:50:53;98946.41;;;25.22;41.93
59519;BME280;46994;54.976;73.404;2022-07-23T08:53:22;98943.03;;;24.98;41.93
59519;BME280;46994;54.976;73.404;2022-07-23T08:55:54;98943.13;;;24.79;42.12
59519;BME280;46994;54.976;73.404;2022-07-23T08:58:22;98946.50;;;24.57;41.72
59519;BME280;46994;54.976;73.404;2022-07-23T09:00:50;98932.13;;;24.33;42.91
59519;BME280;46994;54.976;73.404;2022-07-23T09:03:20;98945.72;;;24.38;42.55
59519;BME280;46994;54.976;73.404;2022-07-23T09:05:49;98938.56;;;24.23;43.15
59519;BME280;46994;54.976;73.404;2022-07-23T09:08:17;98942.13;;;24.04;44.87
59519;BME280;46994;54.976;73.404;2022-07-23T09:10:55;98932.75;;;23.92;43.27
59519;BME280;46994;54.976;73.404;2022-07-23T09:13:23;98938.22;;;24.11;43.49
59519;BME280;46994;54.976;73.404;2022-07-23T09:15:52;98925.25;;;24.16;43.34
59519;BME280;46994;54.976;73.404;2022-07-23T09:18:28;98929.03;;;24.53;42.35
59519;BME280;46994;54.976;73.404;2022-07-23T09:21:09;98916.28;;;24.62;42.03
59519;BME280;46994;54.976;73.404;2022-07-23T09:23:38;98906.81;;;24.41;42.84
59519;BME280;46994;54.976;73.404;2022-07-23T09:26:35;98924.19;;;24.64;42.85
59519;BME280;46994;54.976;73.404;2022-07-23T09:29:20;98911.34;;;24.78;43.34
59519;BME280;46994;54.976;73.404;2022-07-23T09:31:59;98934.47;;;24.72;42.92
59519;BME280;46994;54.976;73.404;2022-07-23T09:34:28;98947.22;;;24.49;43.78
59519;BME280;46994;54.976;73.404;2022-07-23T09:37:08;98956.94;;;24.03;45.87
59519;BME280;46994;54.976;73.404;2022-07-23T09:39:36;98969.44;;;23.24;51.64
59519;BME280;46994;54.976;73.404;2022-07-23T09:42:16;98963.56;;;22.54;55.20
59519;BME280;46994;54.976;73.404;2022-07-23T09:44:46;98946.56;;;21.89;57.05
59519;BME280;46994;54.976;73.404;2022-07-23T09:47:13;98947.06;;;21.41;56.57
59519;BME280;46994;54.976;73.404;2022-07-23T09:49:40;98969.22;;;21.25;58.26
59519;BME280;46994;54.976;73.404;2022-07-23T09:52:06;98947.47;;;21.04;59.72
59519;BME280;46994;54.976;73.404;2022-07-23T09:54:39;98939.06;;;20.96;60.81
59519;BME280;46994;54.976;73.404;2022-07-23T09:57:12;98927.06;;;20.91;60.93
59519;BME280;46994;54.976;73.404;2022-07-23T09:59:44;98922.94;;;21.09;62.33
59519;BME280;46994;54.976;73.404;2022-07-23T10:02:14;98932.09;;;21.39;61.03
59519;BME280;46994;54.976;73.404;2022-07-23T10:04:59;98952.81;;;21.40;58.52
59519;BME280;46994;54.976;73.404;2022-07-23T10:07:48;98931.00;;;21.45;56.91
59519;BME280;46994;54.976;73.404;2022-07-23T10:10:35;98951.47;;;21.87;56.55
59519;BME280;46994;54.976;73.404;2022-07-23T10:13:25;98918.47;;;21.88;57.10
59519;BME280;46994;54.976;73.404;2022-07-23T10:16:10;98927.59;;;22.13;57.32
59519;BME280;46994;54.976;73.404;2022-07-23T10:18:37;98939.03;;;22.49;55.79
59519;BME280;46994;54.976;73.404;2022-07-23T10:21:07;98929.53;;;22.70;55.40
59519;BME280;46994;54.976;73.404;2022-07-23T10:23:40;98937.50;;;22.96;54.42
59519;BME280;46994;54.976;73.404;2022-07-23T10:26:22;98929.72;;;23.08;52.45
59519;BME280;46994;54.976;73.404;2022-07-23T10:29:02;98937.63;;;23.09;52.88
59519;BME280;46994;54.976;73.404;2022-07-23T10:37:39;98941.34;;;23.18;51.02
59519;BME280;46994;54.976;73.404;2022-07-23T10:40:11;98937.63;;;23.33;49.53
59519;BME280;46994;54.976;73.404;2022-07-23T10:42:39;98926.91;;;23.37;49.83
59519;BME280;46994;54.976;73.404;2022-07-23T10:45:27;98942.16;;;23.43;46.59
59519;BME280;46994;54.976;73.404;2022-07-23T10:47:54;98942.78;;;23.35;47.80
59519;BME280;46994;54.976;73.404;2022-07-23T10:50:29;98942.97;;;23.19;47.32
59519;BME280;46994;54.976;73.404;2022-07-23T10:58:03;98917.63;;;23.14;46.64
59519;BME280;46994;54.976;73.404;2022-07-23T11:00:34;98932.16;;;23.33;45.73
59519;BME280;46994;54.976;73.404;2022-07-23T11:03:03;98932.63;;;23.40;46.04
59519;BME280;46994;54.976;73.404;2022-07-23T11:05:45;98933.44;;;23.41;46.16
59519;BME280;46994;54.976;73.404;2022-07-23T11:08:19;98907.59;;;23.28;45.15
59519;BME280;46994;54.976;73.404;2022-07-23T11:10:53;98927.78;;;23.32;44.65
59519;BME280;46994;54.976;73.404;2022-07-23T11:13:32;98913.31;;;23.08;44.91
59519;BME280;46994;54.976;73.404;2022-07-23T11:24:18;98980.28;;;22.08;45.12
59519;BME280;46994;54.976;73.404;2022-07-23T11:26:56;98948.91;;;21.61;46.17
59519;BME280;46994;54.976;73.404;2022-07-23T11:31:59;98970.75;;;21.51;48.58
59519;BME280;46994;54.976;73.404;2022-07-23T11:37:11;98936.22;;;21.31;50.05
59519;BME280;46994;54.976;73.404;2022-07-23T11:39:39;98975.06;;;21.62;49.95
59519;BME280;46994;54.976;73.404;2022-07-23T11:42:07;98950.84;;;21.56;48.31
59519;BME280;46994;54.976;73.404;2022-07-23T11:44:35;98967.16;;;21.66;47.48
59519;BME280;46994;54.976;73.404;2022-07-23T11:47:07;98952.47;;;21.52;47.21
59519;BME280;46994;54.976;73.404;2022-07-23T11:49:35;98959.78;;;21.66;47.31
59519;BME280;46994;54.976;73.404;2022-07-23T11:52:10;98947.25;;;21.65;46.08
59519;BME280;46994;54.976;73.404;2022-07-23T11:54:48;98947.25;;;21.65;44.82
59519;BME280;46994;54.976;73.404;2022-07-23T11:57:16;98958.09;;;21.75;43.64
59519;BME280;46994;54.976;73.404;2022-07-23T11:59:43;98949.66;;;21.72;43.39
59519;BME280;46994;54.976;73.404;2022-07-23T12:02:12;98954.56;;;21.75;43.99
59519;BME280;46994;54.976;73.404;2022-07-23T12:04:40;98939.31;;;21.69;42.79
59519;BME280;46994;54.976;73.404;2022-07-23T12:07:29;98949.16;;;21.65;42.24
59519;BME280;46994;54.976;73.404;2022-07-23T12:10:08;98965.72;;;21.79;41.51
59519;BME280;46994;54.976;73.404;2022-07-23T12:12:40;98943.94;;;21.73;42.19
59519;BME280;46994;54.976;73.404;2022-07-23T12:15:09;98939.78;;;21.81;41.76
59519;BME280;46994;54.976;73.404;2022-07-23T12:17:38;98940.53;;;21.92;42.12
59519;BME280;46994;54.976;73.404;2022-07-23T12:20:08;98945.91;;;22.07;42.06
59519;BME280;46994;54.976;73.404;2022-07-23T12:22:44;98956.75;;;22.17;41.45
59519;BME280;46994;54.976;73.404;2022-07-23T12:25:15;98934.91;;;22.22;42.62
59519;BME280;46994;54.976;73.404;2022-07-23T12:27:44;98940.41;;;22.46;41.67
59519;BME280;46994;54.976;73.404;2022-07-23T12:30:26;98926.06;;;22.30;41.96
59519;BME280;46994;54.976;73.404;2022-07-23T12:32:56;98937.56;;;22.27;39.52
59519;BME280;46994;54.976;73.404;2022-07-23T12:35:31;98932.22;;;22.12;38.80
59519;BME280;46994;54.976;73.404;2022-07-23T12:38:02;98930.88;;;22.10;39.87
59519;BME280;46994;54.976;73.404;2022-07-23T12:40:50;98956.75;;;22.22;38.59
59519;BME280;46994;54.976;73.404;2022-07-23T12:48:36;98940.50;;;22.36;39.39
59519;BME280;46994;54.976;73.404;2022-07-23T12:51:08;98949.47;;;22.42;39.77
59519;BME280;46994;54.976;73.404;2022-07-23T12:53:40;98976.84;;;22.66;39.74
59519;BME280;46994;54.976;73.404;2022-07-23T12:56:12;98934.44;;;22.73;40.08
59519;BME280;46994;54.976;73.404;2022-07-23T12:58:45;98955.38;;;22.83;39.67
59519;BME280;46994;54.976;73.404;2022-07-23T13:04:15;98959.09;;;23.21;40.36
59519;BME280;46994;54.976;73.404;2022-07-23T13:06:44;98963.03;;;23.10;39.21
59519;BME280;46994;54.976;73.404;2022-07-23T13:09:16;98972.41;;;23.04;39.96
59519;BME280;46994;54.976;73.404;2022-07-23T13:11:45;98983.41;;;23.23;40.14
59519;BME280;46994;54.976;73.404;2022-07-23T13:14:13;98975.56;;;24.01;37.34
59519;BME280;46994;54.976;73.404;2022-07-23T13:16:40;98980.81;;;24.17;37.33
59519;BME280;46994;54.976;73.404;2022-07-23T13:19:07;98970.78;;;24.64;37.21
59519;BME280;46994;54.976;73.404;2022-07-23T13:21:34;98983.03;;;24.15;38.18
59519;BME280;46994;54.976;73.404;2022-07-23T13:24:01;98979.84;;;23.70;38.74
59519;BME280;46994;54.976;73.404;2022-07-23T13:26:28;98987.63;;;24.00;38.22
59519;BME280;46994;54.976;73.404;2022-07-23T13:28:54;98966.00;;;23.99;38.61
59519;BME280;46994;54.976;73.404;2022-07-23T13:31:21;98976.25;;;24.64;36.92
59519;BME280;46994;54.976;73.404;2022-07-23T13:33:48;98977.19;;;23.84;38.48
59519;BME280;46994;54.976;73.404;2022-07-23T13:36:15;98978.03;;;23.36;39.46